createdAt,value
2023-05-21T00:02:06.743Z,17.84
2023-05-21T00:04:34.621Z,17.83
2023-05-21T00:07:02.527Z,17.80
2023-05-21T00:09:30.720Z,17.84
2023-05-21T00:11:58.596Z,17.74
2023-05-21T00:14:26.959Z,17.81
2023-05-21T00:16:54.920Z,17.86
2023-05-21T00:19:23.010Z,17.83
2023-05-21T00:21:51.085Z,17.78
2023-05-21T00:24:19.246Z,17.80
2023-05-21T00:26:47.126Z,17.80
2023-05-21T00:29:15.040Z,17.72
2023-05-21T00:31:43.045Z,17.81
2023-05-21T00:34:11.094Z,17.66
2023-05-21T00:36:40.579Z,17.79
2023-05-21T00:39:09.124Z,17.83
2023-05-21T00:41:38.142Z,17.76
2023-05-21T00:44:07.329Z,17.69
2023-05-21T00:46:35.756Z,17.78
2023-05-21T00:49:04.230Z,17.64
2023-05-21T00:51:32.925Z,17.77
2023-05-21T00:54:01.260Z,17.80
2023-05-21T00:56:29.546Z,17.85
2023-05-21T00:58:58.742Z,17.71
2023-05-21T01:01:27.916Z,17.75
2023-05-21T01:03:58.078Z,17.71
2023-05-21T01:06:26.237Z,17.69
2023-05-21T01:08:58.286Z,17.77
2023-05-21T01:11:40.325Z,17.69
2023-05-21T01:14:10.426Z,17.77
2023-05-21T01:16:41.139Z,17.79
2023-05-21T01:19:13.858Z,17.82
2023-05-21T01:21:45.458Z,17.85
2023-05-21T01:24:15.952Z,17.92
2023-05-21T01:26:44.473Z,17.91
2023-05-21T01:29:14.552Z,17.88
2023-05-21T01:32:20.979Z,17.89
2023-05-21T01:34:56.057Z,17.87
2023-05-21T01:37:31.878Z,17.96
2023-05-21T01:40:46.407Z,17.80
2023-05-21T01:43:15.741Z,17.82
2023-05-21T01:45:45.540Z,17.92
2023-05-21T01:48:15.080Z,17.96
2023-05-21T01:50:44.491Z,17.79
2023-05-21T01:53:12.487Z,17.83
2023-05-21T01:55:42.194Z,17.85
2023-05-21T01:58:10.370Z,17.88
2023-05-21T02:00:40.187Z,17.69
2023-05-21T02:03:09.040Z,17.82
2023-05-21T02:05:37.403Z,17.71
2023-05-21T02:08:05.699Z,17.56
2023-05-21T02:10:33.738Z,17.56
2023-05-21T02:13:01.770Z,17.54
2023-05-21T02:15:30.650Z,17.61
2023-05-21T02:17:58.676Z,17.72
2023-05-21T02:20:26.694Z,17.60
2023-05-21T02:22:54.866Z,17.59
2023-05-21T02:25:22.870Z,17.68
2023-05-21T02:27:53.814Z,17.70
2023-05-21T02:30:21.842Z,17.76
2023-05-21T02:32:50.133Z,17.70
2023-05-21T02:35:18.216Z,17.65
2023-05-21T02:37:46.222Z,17.73
2023-05-21T02:40:16.305Z,17.70
2023-05-21T02:42:44.299Z,17.72
2023-05-21T02:45:16.943Z,17.68
2023-05-21T02:47:45.176Z,17.75
2023-05-21T02:50:14.241Z,17.72
2023-05-21T02:52:47.654Z,17.57
2023-05-21T02:55:15.680Z,17.46
2023-05-21T02:57:43.704Z,17.62
2023-05-21T03:00:12.321Z,17.55
2023-05-21T03:02:41.465Z,17.41
2023-05-21T03:05:09.962Z,17.57
2023-05-21T03:07:37.936Z,17.59
2023-05-21T03:10:06.699Z,17.58
2023-05-21T03:12:34.843Z,17.62
2023-05-21T03:15:02.896Z,17.64
2023-05-21T03:17:32.600Z,17.48
2023-05-21T03:20:00.613Z,17.41
2023-05-21T03:22:28.636Z,17.22
2023-05-21T03:24:56.516Z,17.21
2023-05-21T03:27:24.898Z,17.25
2023-05-21T03:29:55.206Z,17.21
2023-05-21T03:32:23.646Z,17.38
2023-05-21T03:34:52.312Z,17.23
2023-05-21T03:37:20.210Z,17.30
2023-05-21T03:39:48.562Z,17.40
2023-05-21T03:42:16.684Z,17.28
2023-05-21T03:44:49.690Z,17.51
2023-05-21T03:47:37.818Z,17.59
2023-05-21T03:50:09.582Z,17.56
2023-05-21T03:52:38.078Z,17.47
2023-05-21T03:55:06.930Z,17.46
2023-05-21T03:57:35.110Z,17.41
2023-05-21T04:00:04.405Z,17.42
2023-05-21T04:02:32.908Z,17.55
2023-05-21T04:05:00.962Z,17.48
2023-05-21T04:07:30.323Z,17.39
2023-05-21T04:09:58.264Z,17.43
2023-05-21T04:12:26.379Z,17.44
2023-05-21T04:14:54.453Z,17.49
2023-05-21T04:17:22.401Z,17.51
2023-05-21T04:19:51.168Z,17.36
2023-05-21T04:22:19.554Z,17.33
2023-05-21T04:24:48.970Z,17.42
2023-05-21T04:27:24.473Z,17.43
2023-05-21T04:29:54.865Z,17.41
2023-05-21T04:32:25.049Z,17.50
2023-05-21T04:34:52.958Z,17.37
2023-05-21T04:37:20.856Z,17.45
2023-05-21T04:39:48.825Z,17.52
2023-05-21T04:42:17.115Z,17.45
2023-05-21T04:44:45.247Z,17.46
2023-05-21T04:47:15.083Z,17.48
2023-05-21T04:49:43.580Z,17.52
2023-05-21T04:52:11.582Z,17.57
2023-05-21T04:54:42.233Z,17.62
2023-05-21T04:57:10.139Z,17.67
2023-05-21T04:59:39.647Z,17.67
2023-05-21T05:02:07.586Z,17.73
2023-05-21T05:04:35.636Z,17.76
2023-05-21T05:07:03.536Z,17.81
2023-05-21T05:09:32.205Z,17.90
2023-05-21T05:12:00.417Z,17.88
2023-05-21T05:14:29.843Z,17.91
2023-05-21T05:17:01.262Z,18.00
2023-05-21T05:19:29.859Z,18.01
2023-05-21T05:21:58.153Z,18.00
2023-05-21T05:24:26.460Z,18.06
2023-05-21T05:26:54.578Z,17.99
2023-05-21T05:29:22.878Z,18.05
2023-05-21T05:31:51.111Z,18.06
2023-05-21T05:34:20.208Z,18.15
2023-05-21T05:36:49.537Z,18.20
2023-05-21T05:39:17.511Z,18.17
2023-05-21T05:41:47.066Z,18.22
2023-05-21T05:44:15.344Z,18.18
2023-05-21T05:46:44.889Z,18.18
2023-05-21T05:49:14.103Z,18.25
2023-05-21T05:51:42.453Z,18.24
2023-05-21T05:54:10.851Z,18.32
2023-05-21T05:56:39.363Z,18.32
2023-05-21T05:59:07.433Z,18.39
2023-05-21T06:01:38.550Z,18.43
2023-05-21T06:04:07.994Z,18.35
2023-05-21T06:06:37.166Z,18.44
2023-05-21T06:09:05.291Z,18.49
2023-05-21T06:11:33.404Z,18.49
2023-05-21T06:14:02.155Z,18.48
2023-05-21T06:16:32.957Z,18.52
2023-05-21T06:19:01.404Z,18.47
2023-05-21T06:21:29.697Z,18.45
2023-05-21T06:23:58.284Z,18.50
2023-05-21T06:26:26.592Z,18.48
2023-05-21T06:28:54.990Z,18.50
2023-05-21T06:31:23.202Z,18.51
2023-05-21T06:33:51.896Z,18.53
2023-05-21T06:36:43.644Z,18.44
2023-05-21T06:39:19.087Z,18.54
2023-05-21T06:41:52.465Z,18.65
2023-05-21T06:44:45.019Z,18.77
2023-05-21T06:47:38.204Z,18.89
2023-05-21T06:50:06.727Z,18.98
2023-05-21T06:52:34.816Z,19.13
2023-05-21T06:55:04.025Z,19.26
2023-05-21T06:57:49.713Z,19.36
2023-05-21T07:00:17.993Z,19.50
2023-05-21T07:02:46.156Z,19.65
2023-05-21T07:05:15.231Z,19.82
2023-05-21T07:07:43.280Z,19.99
2023-05-21T07:10:11.518Z,20.15
2023-05-21T07:12:41.129Z,20.25
2023-05-21T07:15:09.775Z,20.39
2023-05-21T07:17:37.922Z,20.58
2023-05-21T07:20:10.098Z,20.91
2023-05-21T07:22:39.990Z,21.03
2023-05-21T07:25:09.806Z,21.25
2023-05-21T07:27:37.930Z,21.45
2023-05-21T07:30:06.524Z,21.60
2023-05-21T07:32:34.680Z,21.61
2023-05-21T07:35:02.617Z,21.67
2023-05-21T07:37:31.740Z,21.70
2023-05-21T07:40:00.291Z,21.91
2023-05-21T07:42:28.254Z,22.00
2023-05-21T07:44:57.896Z,22.12
2023-05-21T07:47:27.428Z,22.03
2023-05-21T07:49:55.568Z,22.06
2023-05-21T07:52:23.605Z,22.10
2023-05-21T07:54:51.818Z,22.12
2023-05-21T07:57:19.893Z,22.25
2023-05-21T08:00:14.405Z,22.48
2023-05-21T08:02:52.812Z,22.72
2023-05-21T08:05:23.616Z,22.86
2023-05-21T08:07:51.913Z,22.92
2023-05-21T08:10:20.789Z,22.96
2023-05-21T08:12:53.377Z,23.02
2023-05-21T08:15:22.722Z,22.99
2023-05-21T08:17:50.868Z,23.04
2023-05-21T08:20:20.684Z,23.11
2023-05-21T08:22:50.135Z,23.18
2023-05-21T08:25:18.454Z,23.10
2023-05-21T08:27:48.386Z,23.08
2023-05-21T08:30:18.036Z,23.11
2023-05-21T08:32:46.095Z,23.05
2023-05-21T08:35:15.766Z,23.16
2023-05-21T08:38:07.515Z,23.07
2023-05-21T08:40:55.234Z,23.16
2023-05-21T08:43:24.373Z,23.32
2023-05-21T08:45:59.213Z,23.34
2023-05-21T08:48:32.777Z,23.46
2023-05-21T08:51:03.576Z,23.58
2023-05-21T08:53:35.276Z,23.71
2023-05-21T08:56:07.224Z,23.87
2023-05-21T08:58:51.487Z,24.03
2023-05-21T09:01:25.645Z,24.16
2023-05-21T09:04:21.349Z,24.14
2023-05-21T09:06:55.087Z,24.10
2023-05-21T09:10:03.558Z,24.18
2023-05-21T09:12:32.544Z,24.14
2023-05-21T09:15:01.962Z,24.31
2023-05-21T09:17:36.724Z,24.39
2023-05-21T09:20:26.650Z,24.49
2023-05-21T09:23:04.137Z,24.66
2023-05-21T09:25:33.191Z,24.61
2023-05-21T09:28:16.452Z,24.72
2023-05-21T09:30:48.740Z,24.76
2023-05-21T09:33:29.885Z,24.76
2023-05-21T09:35:58.196Z,24.89
2023-05-21T09:38:28.061Z,24.87
2023-05-21T09:40:59.280Z,24.76
2023-05-21T09:43:28.735Z,24.98
2023-05-21T09:45:59.732Z,25.06
2023-05-21T09:48:36.782Z,24.96
2023-05-21T09:51:14.833Z,24.99
2023-05-21T09:53:45.292Z,25.08
2023-05-21T09:56:13.408Z,25.02
2023-05-21T09:58:41.955Z,25.21
2023-05-21T10:01:11.637Z,25.01
2023-05-21T10:03:43.213Z,25.02
2023-05-21T10:06:11.973Z,25.07
2023-05-21T10:08:45.259Z,25.12
2023-05-21T10:11:14.560Z,25.13
2023-05-21T10:13:49.221Z,25.22
2023-05-21T10:16:18.460Z,25.31
2023-05-21T10:18:49.383Z,25.35
2023-05-21T10:21:18.666Z,25.38
2023-05-21T10:23:46.957Z,25.46
2023-05-21T10:26:16.451Z,25.34
2023-05-21T10:28:45.642Z,25.51
2023-05-21T10:31:14.042Z,25.52
2023-05-21T10:33:43.548Z,25.67
2023-05-21T10:36:12.306Z,25.72
2023-05-21T10:38:43.664Z,25.87
2023-05-21T10:41:12.938Z,25.81
2023-05-21T10:44:13.405Z,25.92
2023-05-21T10:47:15.399Z,26.00
2023-05-21T10:50:07.865Z,25.95
2023-05-21T10:52:57.410Z,25.58
2023-05-21T10:55:43.869Z,25.66
2023-05-21T10:58:49.540Z,25.64
2023-05-21T11:01:19.674Z,25.57
2023-05-21T11:03:48.989Z,25.68
2023-05-21T11:06:25.871Z,26.02
2023-05-21T11:09:17.658Z,26.06
2023-05-21T11:11:52.025Z,26.17
2023-05-21T11:14:39.679Z,26.26
2023-05-21T11:17:17.394Z,26.27
2023-05-21T11:19:49.955Z,26.42
2023-05-21T11:22:28.136Z,26.20
2023-05-21T11:25:02.192Z,26.25
2023-05-21T11:27:34.874Z,26.38
2023-05-21T11:30:11.152Z,26.29
2023-05-21T11:33:08.575Z,26.32
2023-05-21T11:35:58.925Z,26.34
2023-05-21T11:38:31.945Z,26.34
2023-05-21T11:41:06.376Z,26.39
2023-05-21T11:43:41.120Z,26.62
2023-05-21T11:46:12.425Z,26.37
2023-05-21T11:48:42.798Z,26.63
2023-05-21T11:51:11.001Z,26.60
2023-05-21T11:53:39.536Z,26.65
2023-05-21T11:56:10.152Z,26.82
2023-05-21T11:58:43.138Z,26.99
2023-05-21T12:01:31.389Z,27.05
2023-05-21T12:03:59.404Z,27.03
2023-05-21T12:06:27.584Z,27.05
2023-05-21T12:08:59.378Z,27.21
2023-05-21T12:11:27.923Z,27.26
2023-05-21T12:13:57.414Z,27.19
2023-05-21T12:16:27.188Z,27.20
2023-05-21T12:18:56.283Z,27.20
2023-05-21T12:21:24.530Z,27.37
2023-05-21T12:23:52.427Z,27.22
2023-05-21T12:26:22.436Z,27.37
2023-05-21T12:28:50.670Z,27.34
2023-05-21T12:31:18.740Z,27.29
2023-05-21T12:33:51.560Z,27.42
2023-05-21T12:36:30.285Z,27.28
2023-05-21T12:38:58.826Z,27.06
2023-05-21T12:41:26.966Z,27.30
2023-05-21T12:43:54.836Z,27.47
2023-05-21T12:46:23.681Z,27.50
2023-05-21T12:48:56.247Z,27.82
2023-05-21T12:51:24.265Z,27.96
2023-05-21T12:53:52.240Z,28.03
2023-05-21T12:56:20.243Z,27.84
2023-05-21T12:58:50.688Z,27.83
2023-05-21T13:01:22.055Z,28.02
2023-05-21T13:03:50.136Z,27.99
2023-05-21T13:06:18.110Z,28.35
2023-05-21T13:08:46.099Z,28.14
2023-05-21T13:11:13.998Z,28.20
2023-05-21T13:13:41.974Z,28.27
2023-05-21T13:16:10.045Z,28.10
2023-05-21T13:18:38.132Z,27.60
2023-05-21T13:21:06.432Z,27.72
2023-05-21T13:23:34.458Z,28.02
2023-05-21T13:26:02.481Z,27.99
2023-05-21T13:28:30.653Z,27.56
2023-05-21T13:30:58.596Z,27.41
2023-05-21T13:33:29.908Z,27.70
2023-05-21T13:35:58.620Z,27.73
2023-05-21T13:38:26.579Z,27.17
2023-05-21T13:40:55.231Z,27.35
2023-05-21T13:43:23.704Z,27.70
2023-05-21T13:45:53.384Z,27.88
2023-05-21T13:48:22.005Z,28.09
2023-05-21T13:50:52.588Z,28.19
2023-05-21T13:53:23.850Z,28.23
2023-05-21T13:55:53.646Z,28.08
2023-05-21T13:58:22.932Z,28.00
2023-05-21T14:00:52.791Z,28.06
2023-05-21T14:03:22.944Z,28.26
2023-05-21T14:05:54.662Z,28.31
2023-05-21T14:08:27.963Z,28.50
2023-05-21T14:10:58.386Z,28.81
2023-05-21T14:13:27.926Z,28.74
2023-05-21T14:15:58.100Z,28.69
2023-05-21T14:18:28.106Z,28.59
2023-05-21T14:20:57.338Z,28.57
2023-05-21T14:23:26.663Z,28.78
2023-05-21T14:25:54.540Z,28.65
2023-05-21T14:28:23.882Z,28.63
2023-05-21T14:30:55.947Z,28.46
2023-05-21T14:33:26.151Z,28.56
2023-05-21T14:35:58.798Z,28.35
2023-05-21T14:38:28.770Z,28.43
2023-05-21T14:40:59.325Z,28.46
2023-05-21T14:43:29.664Z,28.56
2023-05-21T14:45:59.614Z,28.57
2023-05-21T14:48:30.237Z,28.50
2023-05-21T14:51:00.957Z,28.54
2023-05-21T14:53:34.367Z,28.17
2023-05-21T14:56:05.778Z,28.13
2023-05-21T14:58:36.422Z,28.22
2023-05-21T15:01:05.284Z,28.24
2023-05-21T15:03:33.617Z,28.30
2023-05-21T15:06:01.772Z,28.26
2023-05-21T15:08:30.407Z,28.21
2023-05-21T15:10:58.879Z,28.15
2023-05-21T15:13:27.621Z,27.99
2023-05-21T15:16:00.662Z,28.10
2023-05-21T15:18:30.897Z,28.13
2023-05-21T15:20:59.691Z,28.09
2023-05-21T15:23:27.829Z,27.87
2023-05-21T15:25:56.521Z,28.08
2023-05-21T15:28:25.465Z,27.92
2023-05-21T15:30:53.520Z,27.76
2023-05-21T15:33:21.788Z,27.56
2023-05-21T15:35:49.716Z,27.37
2023-05-21T15:38:17.825Z,27.43
2023-05-21T15:40:45.866Z,27.25
2023-05-21T15:43:13.812Z,27.19
2023-05-21T15:45:42.124Z,27.09
2023-05-21T15:48:10.164Z,27.12
2023-05-21T15:50:38.508Z,27.06
2023-05-21T15:53:06.593Z,26.84
2023-05-21T15:55:35.057Z,26.89
2023-05-21T15:58:03.915Z,26.97
2023-05-21T16:00:31.969Z,26.84
2023-05-21T16:03:00.053Z,26.89
2023-05-21T16:05:28.126Z,26.71
2023-05-21T16:07:55.995Z,26.76
2023-05-21T16:10:24.071Z,26.75
2023-05-21T16:12:52.033Z,26.68
2023-05-21T16:15:19.993Z,26.78
2023-05-21T16:17:48.121Z,26.61
2023-05-21T16:20:16.445Z,26.73
2023-05-21T16:22:44.602Z,26.71
2023-05-21T16:25:13.141Z,26.69
2023-05-21T16:27:41.178Z,26.64
2023-05-21T16:30:11.934Z,26.56
2023-05-21T16:32:40.337Z,26.58
2023-05-21T16:35:08.537Z,26.66
2023-05-21T16:37:36.466Z,26.56
2023-05-21T16:40:04.932Z,26.54
2023-05-21T16:42:33.439Z,26.43
2023-05-21T16:45:01.393Z,26.34
2023-05-21T16:47:29.676Z,26.32
2023-05-21T16:49:58.711Z,26.26
2023-05-21T16:52:27.453Z,26.37
2023-05-21T16:54:56.206Z,26.33
2023-05-21T16:57:24.213Z,26.31
2023-05-21T16:59:52.503Z,26.28
2023-05-21T17:02:57.054Z,26.25
2023-05-21T17:05:27.119Z,26.14
2023-05-21T17:07:55.889Z,26.16
2023-05-21T17:10:25.721Z,26.20
2023-05-21T17:12:54.222Z,26.20
2023-05-21T17:15:22.389Z,26.01
2023-05-21T17:17:51.452Z,26.08
2023-05-21T17:20:20.695Z,25.94
2023-05-21T17:22:48.989Z,25.88
2023-05-21T17:25:17.552Z,25.92
2023-05-21T17:27:45.554Z,25.95
2023-05-21T17:30:16.773Z,25.99
2023-05-21T17:32:44.921Z,25.94
2023-05-21T17:35:12.811Z,25.94
2023-05-21T17:37:40.939Z,25.75
2023-05-21T17:40:09.359Z,25.67
2023-05-21T17:42:37.409Z,25.74
2023-05-21T17:45:05.876Z,25.79
2023-05-21T17:47:34.799Z,25.69
2023-05-21T17:50:03.260Z,25.64
2023-05-21T17:52:31.329Z,25.58
2023-05-21T17:54:59.257Z,25.51
2023-05-21T17:57:27.209Z,25.54
2023-05-21T17:59:55.758Z,25.53
2023-05-21T18:02:24.549Z,25.49
2023-05-21T18:04:52.749Z,25.58
2023-05-21T18:07:22.448Z,25.56
2023-05-21T18:09:50.639Z,25.43
2023-05-21T18:12:18.674Z,25.35
2023-05-21T18:14:46.776Z,25.29
2023-05-21T18:17:14.992Z,25.18
2023-05-21T18:19:43.057Z,25.22
2023-05-21T18:22:11.660Z,25.09
2023-05-21T18:24:40.267Z,25.07
2023-05-21T18:27:08.491Z,25.00
2023-05-21T18:29:37.153Z,24.91
2023-05-21T18:32:05.620Z,24.81
2023-05-21T18:34:33.657Z,24.69
2023-05-21T18:37:01.836Z,24.58
2023-05-21T18:39:29.851Z,24.62
2023-05-21T18:42:12.062Z,24.52
2023-05-21T18:44:40.853Z,24.49
2023-05-21T18:47:08.908Z,24.43
2023-05-21T18:49:36.840Z,24.38
2023-05-21T18:52:06.447Z,24.28
2023-05-21T18:54:34.429Z,24.23
2023-05-21T18:57:02.403Z,24.21
2023-05-21T18:59:31.504Z,24.07
2023-05-21T19:01:59.393Z,23.97
2023-05-21T19:04:27.802Z,23.85
2023-05-21T19:06:56.069Z,23.82
2023-05-21T19:09:24.270Z,23.85
2023-05-21T19:11:52.254Z,23.85
2023-05-21T19:14:21.202Z,23.82
2023-05-21T19:16:49.238Z,23.70
2023-05-21T19:19:17.278Z,23.68
2023-05-21T19:21:47.957Z,23.52
2023-05-21T19:24:16.278Z,23.49
2023-05-21T19:26:44.611Z,23.47
2023-05-21T19:29:12.889Z,23.40
2023-05-21T19:31:42.924Z,23.29
2023-05-21T19:34:11.387Z,23.20
2023-05-21T19:36:51.955Z,23.17
2023-05-21T19:39:21.223Z,23.18
2023-05-21T19:41:49.266Z,23.18
2023-05-21T19:44:17.621Z,23.13
2023-05-21T19:46:46.230Z,22.93
2023-05-21T19:49:16.029Z,22.90
2023-05-21T19:51:44.375Z,22.87
2023-05-21T19:54:12.464Z,22.80
2023-05-21T19:56:42.167Z,22.72
2023-05-21T19:59:10.116Z,22.69
2023-05-21T20:01:40.413Z,22.48
2023-05-21T20:04:08.459Z,22.41
2023-05-21T20:06:37.629Z,22.46
2023-05-21T20:09:09.081Z,22.40
2023-05-21T20:11:37.399Z,22.37
2023-05-21T20:14:06.454Z,22.37
2023-05-21T20:16:34.505Z,22.33
2023-05-21T20:19:04.301Z,22.28
2023-05-21T20:21:32.243Z,22.32
2023-05-21T20:24:00.199Z,22.22
2023-05-21T20:26:28.177Z,22.22
2023-05-21T20:28:57.066Z,22.23
2023-05-21T20:31:25.772Z,22.13
2023-05-21T20:33:55.432Z,22.16
2023-05-21T20:36:24.040Z,22.12
2023-05-21T20:38:51.954Z,22.04
2023-05-21T20:41:20.246Z,22.05
2023-05-21T20:43:48.172Z,21.94
2023-05-21T20:46:18.554Z,21.94
2023-05-21T20:48:47.529Z,21.96
2023-05-21T20:51:15.895Z,21.78
2023-05-21T20:53:44.411Z,21.83
2023-05-21T20:56:14.998Z,21.86
2023-05-21T20:58:43.334Z,21.83
2023-05-21T21:01:11.498Z,21.81
2023-05-21T21:03:41.412Z,21.78
2023-05-21T21:06:09.966Z,21.69
2023-05-21T21:08:40.452Z,21.60
2023-05-21T21:11:10.196Z,21.64
2023-05-21T21:13:38.367Z,21.55
2023-05-21T21:16:06.945Z,21.43
2023-05-21T21:18:34.895Z,21.35
2023-05-21T21:21:02.809Z,21.34
2023-05-21T21:23:30.836Z,21.26
2023-05-21T21:25:58.824Z,21.19
2023-05-21T21:28:26.797Z,21.17
2023-05-21T21:30:54.837Z,21.13
2023-05-21T21:33:24.561Z,21.15
2023-05-21T21:35:52.666Z,21.17
2023-05-21T21:38:20.786Z,21.16
2023-05-21T21:40:48.884Z,21.11
2023-05-21T21:43:16.854Z,21.03
2023-05-21T21:45:45.015Z,20.89
2023-05-21T21:48:12.987Z,20.83
2023-05-21T21:50:41.286Z,20.79
2023-05-21T21:53:09.961Z,20.71
2023-05-21T21:55:38.122Z,20.63
2023-05-21T21:58:07.123Z,20.57
2023-05-21T22:00:35.207Z,20.46
2023-05-21T22:03:08.906Z,20.39
2023-05-21T22:05:45.725Z,20.32
2023-05-21T22:08:14.473Z,20.25
2023-05-21T22:10:42.548Z,20.24
2023-05-21T22:14:29.269Z,20.28
2023-05-21T22:17:48.630Z,20.38
2023-05-21T22:20:17.940Z,20.44
2023-05-21T22:22:46.552Z,20.38
2023-05-21T22:25:14.532Z,20.44
2023-05-21T22:27:43.275Z,20.48
2023-05-21T22:30:14.691Z,20.43
2023-05-21T22:32:42.604Z,20.33
2023-05-21T22:35:10.749Z,20.31
2023-05-21T22:37:39.074Z,20.26
2023-05-21T22:40:07.535Z,20.22
2023-05-21T22:42:36.498Z,20.17
2023-05-21T22:45:05.166Z,20.21
2023-05-21T22:47:33.018Z,20.18
2023-05-21T22:50:04.422Z,20.17
2023-05-21T22:52:32.594Z,20.17
2023-05-21T22:55:00.962Z,20.24
2023-05-21T22:57:28.988Z,20.21
2023-05-21T22:59:56.818Z,20.27
2023-05-21T23:02:24.617Z,20.24
2023-05-21T23:04:52.393Z,20.26
2023-05-21T23:07:20.185Z,20.24
2023-05-21T23:10:03.874Z,20.31
2023-05-21T23:12:59.548Z,20.29
2023-05-21T23:15:48.044Z,20.39
2023-05-21T23:18:26.089Z,20.41
2023-05-21T23:20:54.178Z,20.44
2023-05-21T23:23:22.002Z,20.49
2023-05-21T23:25:52.081Z,20.62
2023-05-21T23:28:19.858Z,20.77
2023-05-21T23:30:48.077Z,20.82
2023-05-21T23:33:15.891Z,20.88
2023-05-21T23:35:43.715Z,21.10
2023-05-21T23:38:11.447Z,21.18
2023-05-21T23:40:39.419Z,21.32
2023-05-21T23:43:07.420Z,21.42
2023-05-21T23:45:35.343Z,21.47
2023-05-21T23:48:03.237Z,21.54
2023-05-21T23:50:31.168Z,21.60
2023-05-21T23:52:59.475Z,21.68
2023-05-21T23:55:27.220Z,21.73
2023-05-21T23:57:54.970Z,21.81
